createdAt,value
2018-02-10T00:00:57.312Z,-2.80
2018-02-10T00:04:59.870Z,-2.80
2018-02-10T00:09:02.392Z,-2.80
2018-02-10T00:13:05.069Z,-2.70
2018-02-10T00:17:07.698Z,-2.80
2018-02-10T00:21:10.297Z,-2.70
2018-02-10T00:25:13.627Z,-2.70
2018-02-10T00:29:16.229Z,-2.80
2018-02-10T00:33:18.777Z,-2.80
2018-02-10T00:37:22.094Z,-2.80
2018-02-10T00:41:24.653Z,-2.80
2018-02-10T00:45:27.209Z,-2.80
2018-02-10T00:49:29.763Z,-2.80
2018-02-10T00:53:32.303Z,-2.80
2018-02-10T00:57:34.846Z,-2.80
2018-02-10T01:01:37.375Z,-2.90
2018-02-10T01:05:40.180Z,-2.80
2018-02-10T01:09:44.061Z,-2.80
2018-02-10T01:13:46.601Z,-2.80
2018-02-10T01:17:49.149Z,-2.80
2018-02-10T01:21:51.968Z,-2.80
2018-02-10T01:25:55.253Z,-2.80
2018-02-10T01:29:57.787Z,-2.80
2018-02-10T01:34:00.301Z,-2.80
2018-02-10T01:38:02.853Z,-2.80
2018-02-10T01:42:05.377Z,-2.90
2018-02-10T01:46:07.913Z,-2.90
2018-02-10T01:50:21.183Z,-2.90
2018-02-10T01:54:23.751Z,-2.90
2018-02-10T01:58:26.293Z,-2.90
2018-02-10T02:02:28.822Z,-2.90
2018-02-10T02:06:31.352Z,-2.90
2018-02-10T02:10:33.896Z,-2.90
2018-02-10T02:14:36.403Z,-2.90
2018-02-10T02:18:38.939Z,-3.00
2018-02-10T02:22:42.227Z,-3.00
2018-02-10T02:26:44.775Z,-3.00
2018-02-10T02:30:47.302Z,-3.00
2018-02-10T02:34:49.916Z,-3.10
2018-02-10T02:38:53.188Z,-3.10
2018-02-10T02:42:55.727Z,-3.10
2018-02-10T02:46:58.253Z,-3.10
2018-02-10T02:51:00.787Z,-3.10
2018-02-10T02:55:03.320Z,-3.20
2018-02-10T02:59:06.351Z,-3.20
2018-02-10T03:03:09.625Z,-3.20
2018-02-10T03:07:12.180Z,-3.20
2018-02-10T03:11:14.691Z,-3.20
2018-02-10T03:15:17.224Z,-3.20
2018-02-10T03:19:19.759Z,-3.20
2018-02-10T03:23:22.296Z,-3.20
2018-02-10T03:27:24.809Z,-3.20
2018-02-10T03:31:27.346Z,-3.20
2018-02-10T03:35:29.888Z,-3.20
2018-02-10T03:39:32.428Z,-3.30
2018-02-10T03:43:35.745Z,-3.40
2018-02-10T03:47:38.298Z,-3.40
2018-02-10T03:51:40.823Z,-3.40
2018-02-10T03:55:43.426Z,-3.40
2018-02-10T03:59:45.941Z,-3.40
2018-02-10T04:03:48.474Z,-3.50
2018-02-10T04:07:50.989Z,-3.50
2018-02-10T04:11:53.533Z,-3.50
2018-02-10T04:15:56.814Z,-3.50
2018-02-10T04:19:59.408Z,-3.50
2018-02-10T04:24:01.931Z,-3.50
2018-02-10T04:28:04.460Z,-3.60
2018-02-10T04:32:06.992Z,-3.60
2018-02-10T04:36:10.288Z,-3.70
2018-02-10T04:40:13.573Z,-3.70
2018-02-10T04:44:16.120Z,-3.70
2018-02-10T04:48:18.648Z,-3.70
2018-02-10T04:52:22.032Z,-3.70
2018-02-10T04:56:24.552Z,-3.90
2018-02-10T05:00:27.857Z,-3.90
2018-02-10T05:04:31.142Z,-3.90
2018-02-10T05:08:33.764Z,-3.90
2018-02-10T05:12:36.952Z,-4.00
2018-02-10T05:16:40.247Z,-4.00
2018-02-10T05:20:43.534Z,-4.10
2018-02-10T05:24:46.131Z,-4.10
2018-02-10T05:28:48.634Z,-4.10
2018-02-10T05:32:51.937Z,-4.10
2018-02-10T05:36:55.203Z,-4.10
2018-02-10T05:40:57.751Z,-4.10
2018-02-10T05:45:00.260Z,-4.10
2018-02-10T05:49:02.793Z,-4.10
2018-02-10T05:53:06.142Z,-4.10
2018-02-10T05:57:08.679Z,-4.10
2018-02-10T06:01:11.963Z,-4.10
2018-02-10T06:05:14.512Z,-4.10
2018-02-10T06:09:17.010Z,-4.10
2018-02-10T06:13:19.561Z,-4.10
2018-02-10T06:17:22.093Z,-4.10
2018-02-10T06:21:24.637Z,-4.20
2018-02-10T06:25:27.207Z,-4.10
2018-02-10T06:29:30.501Z,-4.20
2018-02-10T06:33:34.350Z,-4.20
2018-02-10T06:37:36.888Z,-4.20
2018-02-10T06:41:39.490Z,-4.20
2018-02-10T06:45:42.027Z,-4.20
2018-02-10T06:49:44.566Z,-4.10
2018-02-10T06:53:47.976Z,-4.00
2018-02-10T06:57:51.255Z,-4.00
2018-02-10T07:01:53.797Z,-4.00
2018-02-10T07:05:56.316Z,-4.00
2018-02-10T07:09:58.863Z,-4.00
2018-02-10T07:14:01.373Z,-4.00
2018-02-10T07:18:03.919Z,-3.80
2018-02-10T07:22:06.425Z,-3.80
2018-02-10T07:26:08.968Z,-3.60
2018-02-10T07:30:11.480Z,-3.50
2018-02-10T07:34:14.790Z,-3.20
2018-02-10T07:38:17.417Z,-3.20
2018-02-10T07:42:19.951Z,-3.10
2018-02-10T07:46:23.256Z,-2.80
2018-02-10T07:50:25.804Z,-2.80
2018-02-10T07:54:28.355Z,-2.70
2018-02-10T07:58:30.876Z,-2.60
2018-02-10T08:02:33.442Z,-2.50
2018-02-10T08:06:35.955Z,-2.30
2018-02-10T08:10:38.489Z,-1.80
2018-02-10T08:14:41.001Z,-1.00
2018-02-10T08:18:44.309Z,0.40
2018-02-10T08:22:46.817Z,0.40
2018-02-10T08:26:49.352Z,0.60
2018-02-10T08:30:51.856Z,0.40
2018-02-10T08:34:54.393Z,0.00
2018-02-10T08:38:57.667Z,0.00
2018-02-10T08:43:00.193Z,0.00
2018-02-10T08:47:03.462Z,1.90
2018-02-10T08:51:06.768Z,3.10
2018-02-10T08:55:09.297Z,3.00
2018-02-10T08:59:11.828Z,3.70
2018-02-10T09:03:14.351Z,3.80
2018-02-10T09:07:17.640Z,2.80
2018-02-10T09:11:20.172Z,2.80
2018-02-10T09:15:22.712Z,2.00
2018-02-10T09:19:25.215Z,1.30
2018-02-10T09:23:28.513Z,0.60
2018-02-10T09:27:31.803Z,0.60
2018-02-10T09:31:34.334Z,0.50
2018-02-10T09:35:36.872Z,0.50
2018-02-10T09:39:39.418Z,0.50
2018-02-10T09:43:42.001Z,0.50
2018-02-10T09:47:44.540Z,0.50
2018-02-10T09:51:47.812Z,0.40
2018-02-10T09:55:50.346Z,0.40
2018-02-10T09:59:53.629Z,0.50
2018-02-10T10:03:56.944Z,0.50
2018-02-10T10:08:00.231Z,0.50
2018-02-10T10:12:02.766Z,0.50
2018-02-10T10:16:05.282Z,0.50
2018-02-10T10:20:07.816Z,0.50
2018-02-10T10:24:11.302Z,0.60
2018-02-10T10:28:13.848Z,0.60
2018-02-10T10:32:16.351Z,0.60
2018-02-10T10:36:18.926Z,0.60
2018-02-10T10:40:21.414Z,0.70
2018-02-10T10:44:23.940Z,0.70
2018-02-10T10:48:27.822Z,1.00
2018-02-10T10:52:31.091Z,1.10
2018-02-10T10:56:33.623Z,1.10
2018-02-10T11:00:36.191Z,1.10
2018-02-10T11:04:38.762Z,1.20
2018-02-10T11:08:41.302Z,1.30
2018-02-10T11:12:44.605Z,1.20
2018-02-10T11:16:47.891Z,1.30
2018-02-10T11:20:50.451Z,1.20
2018-02-10T11:24:52.963Z,1.20
2018-02-10T11:28:55.779Z,1.10
2018-02-10T11:32:59.056Z,1.30
2018-02-10T11:37:01.589Z,1.30
2018-02-10T11:41:04.121Z,1.30
2018-02-10T11:45:06.674Z,1.30
2018-02-10T11:49:09.225Z,1.30
2018-02-10T11:53:12.528Z,1.40
2018-02-10T11:57:15.823Z,1.40
2018-02-10T12:01:18.373Z,1.40
2018-02-10T12:05:20.911Z,1.50
2018-02-10T12:09:24.206Z,1.50
2018-02-10T12:13:27.549Z,1.60
2018-02-10T12:17:30.061Z,1.60
2018-02-10T12:21:32.596Z,1.60
2018-02-10T12:25:35.890Z,1.70
2018-02-10T12:29:39.175Z,1.80
2018-02-10T12:33:41.783Z,1.80
2018-02-10T12:37:45.065Z,1.90
2018-02-10T12:41:47.609Z,1.90
2018-02-10T12:45:50.159Z,2.00
2018-02-10T12:49:53.433Z,2.10
2018-02-10T12:53:55.981Z,2.10
2018-02-10T12:57:58.507Z,2.10
2018-02-10T13:02:01.061Z,2.20
2018-02-10T13:06:03.638Z,2.20
2018-02-10T13:10:06.990Z,2.20
2018-02-10T13:14:09.494Z,2.20
2018-02-10T13:18:12.787Z,2.20
2018-02-10T13:22:15.304Z,2.20
2018-02-10T13:26:17.871Z,2.20
2018-02-10T13:30:21.147Z,2.20
2018-02-10T13:34:24.604Z,2.20
2018-02-10T13:38:27.115Z,2.30
2018-02-10T13:42:29.658Z,2.30
2018-02-10T13:46:32.942Z,2.30
2018-02-10T13:50:35.473Z,2.20
2018-02-10T13:54:38.008Z,2.20
2018-02-10T13:58:40.545Z,2.20
2018-02-10T14:02:43.071Z,2.10
2018-02-10T14:06:45.604Z,2.00
2018-02-10T14:10:48.117Z,2.10
2018-02-10T14:14:50.648Z,2.10
2018-02-10T14:18:54.170Z,2.10
2018-02-10T14:22:57.470Z,2.10
2018-02-10T14:27:00.757Z,2.10
2018-02-10T14:31:03.569Z,2.10
2018-02-10T14:35:06.843Z,2.10
2018-02-10T14:39:09.373Z,2.00
2018-02-10T14:43:11.875Z,2.00
2018-02-10T14:47:14.405Z,2.00
2018-02-10T14:51:16.949Z,2.00
2018-02-10T14:55:19.492Z,1.90
2018-02-10T14:59:22.789Z,1.90
2018-02-10T15:03:25.331Z,1.80
2018-02-10T15:07:27.870Z,1.80
2018-02-10T15:11:31.172Z,1.80
2018-02-10T15:15:34.442Z,1.80
2018-02-10T15:19:36.966Z,1.80
2018-02-10T15:23:40.263Z,1.80
2018-02-10T15:27:43.571Z,1.80
2018-02-10T15:31:58.775Z,1.80
2018-02-10T15:36:01.312Z,1.80
2018-02-10T15:40:03.816Z,1.80
2018-02-10T15:44:06.364Z,1.70
2018-02-10T15:48:08.871Z,1.80
2018-02-10T15:52:11.421Z,1.80
2018-02-10T15:56:13.952Z,1.70
2018-02-10T16:00:16.494Z,1.70
2018-02-10T16:04:19.109Z,1.70
2018-02-10T16:08:21.628Z,1.70
2018-02-10T16:12:24.903Z,1.70
2018-02-10T16:16:27.448Z,1.70
2018-02-10T16:20:30.013Z,1.70
2018-02-10T16:24:32.622Z,1.70
2018-02-10T16:28:35.142Z,1.60
2018-02-10T16:32:37.673Z,1.60
2018-02-10T16:36:41.002Z,1.60
2018-02-10T16:40:43.625Z,1.60
2018-02-10T16:44:46.880Z,1.60
2018-02-10T16:48:50.390Z,1.60
2018-02-10T16:52:52.924Z,1.50
2018-02-10T16:56:55.459Z,1.50
2018-02-10T17:00:58.039Z,1.50
2018-02-10T17:05:00.582Z,1.50
2018-02-10T17:09:03.143Z,1.60
2018-02-10T17:13:05.663Z,1.60
2018-02-10T17:17:08.190Z,1.50
2018-02-10T17:21:10.712Z,1.50
2018-02-10T17:25:13.249Z,1.60
2018-02-10T17:29:16.546Z,1.50
2018-02-10T17:33:19.854Z,1.50
2018-02-10T17:37:23.166Z,1.50
2018-02-10T17:41:25.760Z,1.50
2018-02-10T17:45:28.636Z,1.50
2018-02-10T17:49:31.949Z,1.40
2018-02-10T17:53:34.495Z,1.40
2018-02-10T17:57:37.992Z,1.40
2018-02-10T18:01:43.416Z,1.40
2018-02-10T18:05:46.035Z,1.40
2018-02-10T18:09:48.558Z,1.50
2018-02-10T18:13:52.669Z,1.40
2018-02-10T18:17:55.219Z,1.40
2018-02-10T18:21:57.792Z,1.40
2018-02-10T18:26:00.350Z,1.40
2018-02-10T18:30:03.663Z,1.40
2018-02-10T18:34:06.209Z,1.30
2018-02-10T18:38:08.751Z,1.30
2018-02-10T18:42:11.302Z,1.30
2018-02-10T18:46:14.615Z,1.30
2018-02-10T18:50:17.958Z,1.30
2018-02-10T18:54:20.585Z,1.30
2018-02-10T18:58:24.700Z,1.40
2018-02-10T19:02:27.237Z,1.30
2018-02-10T19:06:29.753Z,1.30
2018-02-10T19:10:32.303Z,1.20
2018-02-10T19:14:34.822Z,1.20
2018-02-10T19:18:37.364Z,1.20
2018-02-10T19:22:39.916Z,1.30
2018-02-10T19:26:42.446Z,1.20
2018-02-10T19:30:44.996Z,1.20
2018-02-10T19:34:47.539Z,1.20
2018-02-10T19:38:50.078Z,1.20
2018-02-10T19:42:52.641Z,1.20
2018-02-10T19:46:55.174Z,1.20
2018-02-10T19:51:01.133Z,1.10
2018-02-10T19:55:04.412Z,1.20
2018-02-10T19:59:06.970Z,1.10
2018-02-10T20:03:09.481Z,1.10
2018-02-10T20:07:12.055Z,1.10
2018-02-10T20:15:25.166Z,1.10
2018-02-10T20:19:27.719Z,1.10
2018-02-10T21:52:13.126Z,1.10
2018-02-10T22:00:25.275Z,1.10
2018-02-10T22:08:38.173Z,1.10
2018-02-10T22:12:40.680Z,1.10
2018-02-10T22:16:43.211Z,1.10
2018-02-10T22:20:45.742Z,1.10
2018-02-10T22:24:48.274Z,1.00
2018-02-10T22:28:50.863Z,1.00
2018-02-10T22:32:53.393Z,1.00
2018-02-10T22:36:55.904Z,0.90
2018-02-10T22:40:59.220Z,0.90
2018-02-10T22:45:01.748Z,0.90
2018-02-10T22:49:04.293Z,0.90
2018-02-10T22:53:06.808Z,1.00
2018-02-10T22:57:09.336Z,1.00
2018-02-10T23:01:16.566Z,1.00
2018-02-10T23:05:19.114Z,1.00
2018-02-10T23:09:21.777Z,1.00
2018-02-10T23:13:24.300Z,1.00
2018-02-10T23:17:26.852Z,1.00
2018-02-10T23:21:29.418Z,1.00
2018-02-10T23:25:31.927Z,1.00
2018-02-10T23:29:34.457Z,1.00
2018-02-10T23:33:37.755Z,1.00
2018-02-10T23:37:41.067Z,1.00
2018-02-10T23:41:44.378Z,1.10
2018-02-10T23:45:46.895Z,1.00
2018-02-10T23:49:49.398Z,1.00
2018-02-10T23:53:51.938Z,1.10
2018-02-10T23:57:54.453Z,1.10
